Time;durP1;ratioP1;P1;durP2;ratioP2;P2;SDS_P1;SDS_P2;PMS_P1;PMS_P2;Temp;Humidity;BMP_temperature;BMP_pressure;BME280_temperature;BME280_humidity;BME280_pressure;Samples;Min_cycle;Max_cycle;Signal;HPM_P1;HPM_P2
2021/07/03 00:00:59;;;;;;;11.10;7.13;;;;;;;18.09;77.66;99241.00;5035189;28;20045;-72
2021/07/03 00:03:25;;;;;;;9.02;6.65;;;;;;;18.03;77.52;99228.16;5052569;28;20098;-71
2021/07/03 00:05:50;;;;;;;12.85;6.75;;;;;;;18.14;77.36;99243.34;5053439;28;20502;-71
2021/07/03 00:08:17;;;;;;;11.68;6.63;;;;;;;18.21;77.23;99242.00;5052620;28;20053;-71
2021/07/03 00:10:44;;;;;;;10.43;6.80;;;;;;;18.18;77.41;99242.22;5002639;28;20041;-72
2021/07/03 00:13:11;;;;;;;13.13;7.05;;;;;;;18.00;77.78;99226.53;5052669;28;20044;-73
2021/07/03 00:15:36;;;;;;;12.40;7.20;;;;;;;18.04;77.94;99243.09;5001244;28;20049;-72
2021/07/03 00:18:03;;;;;;;8.85;6.40;;;;;;;18.00;77.80;99231.84;5000860;28;20095;-72
2021/07/03 00:20:29;;;;;;;9.43;7.57;;;;;;;17.98;78.02;99236.38;5051991;28;20072;-73
2021/07/03 00:22:55;;;;;;;8.23;6.90;;;;;;;18.02;78.19;99239.69;5052406;28;20479;-72
2021/07/03 00:25:21;;;;;;;13.50;7.75;;;;;;;18.05;78.08;99242.13;5052678;28;20043;-71
2021/07/03 00:27:47;;;;;;;10.98;7.68;;;;;;;18.01;78.18;99233.53;5051479;28;20136;-71
2021/07/03 00:30:13;;;;;;;10.52;7.30;;;;;;;18.00;78.30;99231.00;5051717;28;20160;-71
2021/07/03 00:32:39;;;;;;;10.15;6.95;;;;;;;18.02;78.12;99240.53;5001377;28;20524;-71
2021/07/03 00:35:06;;;;;;;12.25;7.63;;;;;;;17.96;78.42;99240.06;5052269;28;20087;-70
2021/07/03 00:37:32;;;;;;;14.95;7.82;;;;;;;17.92;78.54;99242.06;5053020;28;20132;-73
2021/07/03 00:39:58;;;;;;;14.35;8.25;;;;;;;17.91;78.60;99245.66;5052105;28;20055;-71
2021/07/03 00:42:25;;;;;;;12.73;8.15;;;;;;;17.93;78.29;99235.81;5052696;28;20051;-72
2021/07/03 00:44:50;;;;;;;15.00;8.30;;;;;;;18.12;77.75;99253.19;5053391;28;20127;-71
2021/07/03 00:47:17;;;;;;;9.98;7.90;;;;;;;18.03;77.54;99242.22;5051810;28;20053;-73
2021/07/03 00:49:45;;;;;;;9.73;7.38;;;;;;;18.03;77.65;99238.72;5052013;28;20047;-71
2021/07/03 00:52:11;;;;;;;14.45;8.18;;;;;;;18.13;77.77;99263.69;5002748;28;20067;-70
2021/07/03 00:54:40;;;;;;;14.75;7.47;;;;;;;18.17;77.60;99251.94;5035784;28;20114;-71
2021/07/03 00:57:08;;;;;;;13.02;8.35;;;;;;;18.22;77.45;99259.59;5052437;28;20422;-72
2021/07/03 00:59:39;;;;;;;8.40;7.55;;;;;;;18.16;77.40;99257.34;5034077;28;20118;-70
2021/07/03 01:02:09;;;;;;;11.87;7.77;;;;;;;18.09;78.06;99255.06;5033495;28;20131;-71
2021/07/03 01:04:36;;;;;;;12.38;8.00;;;;;;;18.11;77.80;99257.63;5017202;28;20572;-71
2021/07/03 01:07:04;;;;;;;14.73;7.78;;;;;;;18.07;78.02;99254.31;5050440;28;20037;-71
2021/07/03 01:09:30;;;;;;;12.80;7.03;;;;;;;18.02;78.11;99240.53;5033472;28;20045;-71
2021/07/03 01:11:56;;;;;;;10.68;6.80;;;;;;;18.18;77.85;99255.44;5052301;28;20045;-70
2021/07/03 01:14:22;;;;;;;9.55;6.50;;;;;;;18.18;77.57;99247.50;5034346;28;20041;-71
2021/07/03 01:16:49;;;;;;;11.10;6.82;;;;;;;18.23;77.18;99230.38;5053002;28;20098;-71
2021/07/03 01:19:16;;;;;;;7.45;6.30;;;;;;;18.37;76.87;99246.22;5001914;28;20132;-71
2021/07/03 01:21:53;;;;;;;10.52;6.55;;;;;;;18.35;76.86;99236.69;5051437;28;20063;-73
2021/07/03 01:24:23;;;;;;;8.93;6.20;;;;;;;18.22;77.16;99236.63;5017959;28;20110;-72
2021/07/03 01:26:53;;;;;;;12.00;6.80;;;;;;;18.31;76.99;99245.78;5018979;28;20067;-70
2021/07/03 01:29:22;;;;;;;10.75;6.15;;;;;;;18.24;77.11;99247.13;5002017;28;20084;-74
2021/07/03 01:31:50;;;;;;;7.70;5.95;;;;;;;18.35;76.72;99241.97;5018034;28;20414;-72
2021/07/03 01:34:17;;;;;;;8.38;5.70;;;;;;;18.33;76.50;99238.59;5052262;28;20493;-72
2021/07/03 01:36:44;;;;;;;12.15;6.97;;;;;;;18.39;76.48;99251.44;5034715;28;20041;-71
2021/07/03 01:39:11;;;;;;;9.02;6.85;;;;;;;18.23;76.68;99232.19;5050332;28;20044;-71
2021/07/03 01:41:37;;;;;;;11.40;6.72;;;;;;;18.31;76.74;99245.78;5001279;28;20406;-71
2021/07/03 01:44:04;;;;;;;12.73;7.68;;;;;;;18.42;76.25;99253.88;5017418;28;20047;-70
2021/07/03 01:46:32;;;;;;;14.75;7.57;;;;;;;18.54;76.12;99252.25;5018544;28;20041;-71
2021/07/03 01:49:05;;;;;;;10.80;8.07;;;;;;;18.57;75.52;99257.34;5050677;28;20049;-71
2021/07/03 01:51:38;;;;;;;14.93;8.40;;;;;;;18.50;75.80;99258.69;5049946;28;20078;-70
2021/07/03 01:54:04;;;;;;;10.82;8.15;;;;;;;18.40;75.90;99253.13;5033341;28;20163;-71
2021/07/03 01:56:31;;;;;;;16.25;8.75;;;;;;;18.42;76.35;99269.78;5050280;28;20044;-70
2021/07/03 01:58:58;;;;;;;10.60;7.88;;;;;;;18.43;76.19;99260.88;5030852;28;20045;-69
2021/07/03 02:01:51;;;;;;;11.93;8.00;;;;;;;18.39;76.26;99254.06;5048134;28;20045;-72
2021/07/03 02:04:22;;;;;;;11.23;7.00;;;;;;;18.37;75.93;99253.31;5015998;28;20138;-72
2021/07/03 02:06:48;;;;;;;10.15;7.70;;;;;;;18.29;76.17;99267.06;5031847;28;20041;-71
2021/07/03 02:09:20;;;;;;;11.25;7.55;;;;;;;18.24;76.45;99268.28;5034223;28;20044;-71
2021/07/03 02:11:48;;;;;;;11.00;7.72;;;;;;;18.16;76.38;99242.31;5000304;28;20134;-71
2021/07/03 02:14:20;;;;;;;11.65;7.65;;;;;;;18.27;76.19;99250.41;5049759;28;20170;-70
2021/07/03 02:17:06;;;;;;;11.45;7.50;;;;;;;18.30;75.76;99244.94;5021079;28;20068;-71
2021/07/03 02:19:31;;;;;;;12.43;7.63;;;;;;;18.35;75.55;99265.81;5051003;28;20490;-70
2021/07/03 02:21:59;;;;;;;14.70;8.07;;;;;;;18.35;75.44;99247.28;5016540;28;20037;-71
2021/07/03 02:24:35;;;;;;;12.48;7.55;;;;;;;18.40;75.33;99242.53;5048390;28;20057;-71
2021/07/03 02:27:02;;;;;;;9.82;6.78;;;;;;;18.55;75.02;99249.50;5049568;28;20485;-71
2021/07/03 02:29:28;;;;;;;8.93;7.57;;;;;;;18.47;74.88;99269.47;5049640;28;20110;-70
2021/07/03 02:31:55;;;;;;;13.95;7.47;;;;;;;18.43;74.85;99239.69;5032485;28;20082;-73
2021/07/03 02:34:23;;;;;;;15.02;7.07;;;;;;;18.52;74.88;99257.63;5049458;28;20111;-72
2021/07/03 02:36:49;;;;;;;8.55;7.68;;;;;;;18.33;75.03;99247.38;5050061;28;20399;-71
2021/07/03 02:39:15;;;;;;;8.35;7.40;;;;;;;18.40;74.90;99261.94;5051554;28;20055;-72
2021/07/03 02:41:47;;;;;;;13.95;8.07;;;;;;;18.32;74.92;99253.63;5032974;28;20041;-71
2021/07/03 02:44:13;;;;;;;8.43;7.38;;;;;;;18.37;74.96;99262.13;5051341;28;20047;-72
2021/07/03 02:46:40;;;;;;;8.32;7.47;;;;;;;18.33;74.98;99265.06;5049646;28;20044;-72
2021/07/03 02:49:06;;;;;;;10.25;7.80;;;;;;;18.20;75.21;99265.00;5033498;28;20044;-72
2021/07/03 02:51:34;;;;;;;12.73;8.10;;;;;;;18.30;75.29;99281.16;5049923;28;20481;-72
2021/07/03 02:54:01;;;;;;;8.90;8.00;;;;;;;18.22;75.45;99288.72;5050997;28;20041;-72
2021/07/03 02:56:27;;;;;;;9.63;7.75;;;;;;;18.27;75.45;99291.94;5049701;28;20060;-71
2021/07/03 02:58:53;;;;;;;12.38;7.85;;;;;;;18.41;74.91;99295.41;5048986;28;20127;-69
2021/07/03 03:01:19;;;;;;;9.80;7.85;;;;;;;18.45;74.67;99297.84;5048737;28;20135;-71
2021/07/03 03:03:46;;;;;;;9.55;7.03;;;;;;;18.66;73.84;99299.19;5016187;28;20049;-70
2021/07/03 03:06:14;;;;;;;7.53;6.75;;;;;;;18.74;73.63;99304.84;5032916;28;20495;-72
2021/07/03 03:08:43;;;;;;;9.27;7.30;;;;;;;18.82;73.02;99304.34;5016555;28;20037;-71
2021/07/03 03:11:10;;;;;;;10.65;7.72;;;;;;;18.82;73.24;99313.16;5032236;28;20103;-71
2021/07/03 03:13:38;;;;;;;12.32;7.32;;;;;;;18.85;72.53;99320.03;5051175;28;20057;-71
2021/07/03 03:16:05;;;;;;;16.85;9.20;;;;;;;18.79;72.67;99316.00;5050556;28;20146;-71
2021/07/03 03:18:32;;;;;;;12.82;8.32;;;;;;;18.79;71.99;99288.66;5016351;28;20167;-72
2021/07/03 03:20:58;;;;;;;16.33;7.03;;;;;;;18.81;72.35;99314.09;5048709;28;20597;-69
2021/07/03 03:23:24;;;;;;;9.00;7.28;;;;;;;18.67;72.87;99315.00;5047940;28;20057;-70
2021/07/03 03:25:50;;;;;;;9.98;6.70;;;;;;;18.68;73.06;99316.69;5048522;28;20059;-71
2021/07/03 03:28:18;;;;;;;13.50;7.68;;;;;;;18.73;72.82;99321.69;5048391;28;20102;-72
2021/07/03 03:30:44;;;;;;;12.18;7.97;;;;;;;18.80;72.12;99307.09;5049213;28;20049;-70
2021/07/03 03:33:17;;;;;;;18.98;9.38;;;;;;;18.85;72.00;99317.41;5052762;28;20045;-72
2021/07/03 03:35:43;;;;;;;13.10;8.95;;;;;;;18.92;71.99;99318.69;5053483;28;20036;-70
2021/07/03 03:38:09;;;;;;;14.35;9.60;;;;;;;18.76;72.32;99305.59;5003247;28;20051;-71
2021/07/03 03:40:36;;;;;;;14.57;9.80;;;;;;;18.90;71.89;99296.75;5036220;28;20041;-71
2021/07/03 03:43:03;;;;;;;9.93;8.88;;;;;;;18.95;72.11;99315.84;5019441;28;20033;-72
2021/07/03 03:45:32;;;;;;;10.80;8.00;;;;;;;18.78;72.69;99324.03;5052341;28;20511;-70
2021/07/03 03:48:01;;;;;;;10.60;7.80;;;;;;;18.79;72.56;99312.50;5053130;28;20079;-70
2021/07/03 03:50:34;;;;;;;10.57;8.95;;;;;;;18.94;72.14;99324.75;5035801;28;20119;-70
2021/07/03 03:53:01;;;;;;;14.38;8.45;;;;;;;18.98;71.60;99313.00;5053056;28;20577;-69
2021/07/03 03:55:28;;;;;;;12.75;7.30;;;;;;;19.32;70.71;99338.13;5052092;28;20041;-71
2021/07/03 03:57:55;;;;;;;9.75;7.60;;;;;;;19.25;70.61;99329.72;5034986;28;20037;-71
2021/07/03 04:00:22;;;;;;;8.73;6.72;;;;;;;19.09;70.27;99334.34;5050268;28;20045;-71
2021/07/03 04:02:58;;;;;;;16.88;7.03;;;;;;;18.95;71.27;99326.44;5053560;28;20557;-71
2021/07/03 04:05:29;;;;;;;7.85;6.68;;;;;;;18.96;70.98;99333.44;5034952;28;20049;-70
2021/07/03 04:07:55;;;;;;;7.93;6.75;;;;;;;19.06;70.55;99318.66;5051752;28;20045;-71
2021/07/03 04:10:21;;;;;;;11.45;6.97;;;;;;;19.27;70.21;99330.47;5034533;28;20052;-71
2021/07/03 04:12:47;;;;;;;8.77;7.18;;;;;;;19.08;70.67;99337.94;5018034;28;20391;-71
2021/07/03 04:15:13;;;;;;;11.07;7.30;;;;;;;19.09;70.69;99323.75;5018805;28;20396;-70
2021/07/03 04:17:39;;;;;;;12.07;6.35;;;;;;;19.06;70.48;99313.34;5050944;28;20045;-71
2021/07/03 04:20:07;;;;;;;12.75;7.15;;;;;;;19.25;70.02;99312.97;5053190;28;20037;-69
2021/07/03 04:22:34;;;;;;;12.55;6.65;;;;;;;19.40;69.89;99327.03;5052881;28;20048;-71
2021/07/03 04:25:00;;;;;;;21.63;6.90;;;;;;;19.21;70.71;99312.31;5052066;28;20061;-71
2021/07/03 04:27:26;;;;;;;24.73;7.65;;;;;;;19.27;70.43;99316.38;5051242;28;20044;-69
2021/07/03 04:29:52;;;;;;;25.80;8.38;;;;;;;19.24;70.78;99312.13;5051694;28;20098;-71
2021/07/03 04:32:18;;;;;;;25.00;8.00;;;;;;;19.02;71.36;99291.50;5052090;28;20049;-70
2021/07/03 04:34:43;;;;;;;11.20;7.45;;;;;;;19.16;70.15;99309.13;5052827;28;20049;-71
2021/07/03 04:37:09;;;;;;;7.97;7.18;;;;;;;19.28;70.01;99323.38;5053134;28;20456;-71
2021/07/03 04:39:35;;;;;;;8.43;7.57;;;;;;;19.35;69.79;99312.28;5035137;28;20060;-71
2021/07/03 04:42:01;;;;;;;9.88;7.82;;;;;;;19.55;68.63;99326.03;5051985;28;20140;-70
2021/07/03 04:44:27;;;;;;;9.60;7.07;;;;;;;19.57;68.38;99324.97;5052957;28;20052;-72
2021/07/03 04:46:53;;;;;;;11.40;7.10;;;;;;;19.91;67.39;99328.81;5050988;28;20041;-70
2021/07/03 04:49:18;;;;;;;7.90;6.40;;;;;;;19.79;67.43;99320.84;5034338;28;20628;-72
2021/07/03 04:51:45;;;;;;;7.97;7.15;;;;;;;19.92;67.68;99319.91;5034024;28;20121;-71
2021/07/03 04:54:11;;;;;;;9.98;7.43;;;;;;;19.66;67.91;99312.88;5050131;28;20068;-70
2021/07/03 04:56:37;;;;;;;8.20;7.07;;;;;;;19.69;67.96;99312.69;5051583;28;20041;-70
2021/07/03 04:59:03;;;;;;;8.32;6.88;;;;;;;19.87;67.09;99306.09;5017227;28;20537;-70
2021/07/03 05:01:29;;;;;;;8.63;7.18;;;;;;;20.24;65.80;99319.47;5051607;28;20129;-73
2021/07/03 05:03:55;;;;;;;11.93;7.47;;;;;;;20.19;65.35;99300.38;5000808;28;20131;-71
2021/07/03 05:06:21;;;;;;;11.02;6.90;;;;;;;20.34;65.45;99317.88;5052032;28;20406;-72
2021/07/03 05:08:48;;;;;;;11.25;7.53;;;;;;;20.24;65.78;99319.47;5016987;28;20524;-72
2021/07/03 05:11:14;;;;;;;12.57;6.80;;;;;;;20.37;65.20;99309.69;5052216;28;20067;-72
2021/07/03 05:13:40;;;;;;;10.73;8.20;;;;;;;20.32;64.89;99319.78;5050192;28;20059;-71
2021/07/03 05:16:06;;;;;;;7.93;6.90;;;;;;;20.37;65.88;99332.75;5051265;28;20128;-70
2021/07/03 05:18:32;;;;;;;9.15;6.38;;;;;;;20.65;64.99;99334.31;5051122;28;20037;-71
2021/07/03 05:20:57;;;;;;;9.10;7.57;;;;;;;21.57;61.48;99329.28;5051792;28;20118;-71
2021/07/03 05:23:23;;;;;;;11.60;6.47;;;;;;;22.46;58.27;99334.75;5051074;28;20049;-70
2021/07/03 05:25:52;;;;;;;10.57;6.78;;;;;;;22.83;57.33;99316.66;5000361;28;20045;-71
2021/07/03 05:28:19;;;;;;;14.07;7.18;;;;;;;24.53;52.00;99321.00;5032254;28;20545;-71
2021/07/03 05:30:45;;;;;;;8.43;7.15;;;;;;;25.24;49.06;99319.03;5051220;28;20465;-71
2021/07/03 05:33:11;;;;;;;8.25;6.70;;;;;;;26.94;45.27;99330.63;5050836;28;20131;-71
2021/07/03 05:35:37;;;;;;;10.02;7.85;;;;;;;27.15;43.94;99340.13;4999907;28;20081;-71
2021/07/03 05:38:03;;;;;;;11.25;7.13;;;;;;;27.71;42.94;99322.88;5032360;28;20059;-72
2021/07/03 05:40:29;;;;;;;12.55;6.72;;;;;;;28.83;39.67;99325.50;5051699;28;20154;-71
2021/07/03 05:42:55;;;;;;;9.02;5.70;;;;;;;28.79;39.96;99322.31;4999696;28;20068;-71
2021/07/03 05:45:21;;;;;;;12.95;6.95;;;;;;;29.01;39.71;99314.69;5017313;28;20136;-72
2021/07/03 05:47:51;;;;;;;10.23;6.97;;;;;;;29.96;37.00;99324.84;5050241;28;20392;-71
2021/07/03 05:50:21;;;;;;;9.25;5.95;;;;;;;30.49;34.81;99318.00;5017651;28;20037;-71
2021/07/03 05:52:48;;;;;;;10.18;7.13;;;;;;;27.96;40.76;99309.59;5015930;28;20045;-72
2021/07/03 05:55:13;;;;;;;9.55;6.32;;;;;;;28.89;39.18;99311.41;5049152;28;20118;-69
2021/07/03 05:57:40;;;;;;;7.13;5.50;;;;;;;29.63;38.27;99317.78;5031299;28;20041;-70
2021/07/03 06:00:07;;;;;;;9.35;5.25;;;;;;;30.01;36.11;99330.59;5049193;28;20456;-68
2021/07/03 06:02:40;;;;;;;6.47;4.20;;;;;;;29.07;37.51;99316.72;5048041;28;20048;-69
2021/07/03 06:05:07;;;;;;;8.15;5.40;;;;;;;28.10;39.64;99317.06;5047452;28;20079;-70
2021/07/03 06:07:34;;;;;;;7.32;5.40;;;;;;;27.87;40.43;99311.38;5049171;28;20049;-71
2021/07/03 06:10:00;;;;;;;12.95;6.45;;;;;;;26.19;43.61;99330.66;5048767;28;20128;-70
2021/07/03 06:12:26;;;;;;;10.13;6.05;;;;;;;27.38;41.03;99324.38;5049564;28;20128;-71
2021/07/03 06:14:52;;;;;;;7.18;4.82;;;;;;;27.84;39.62;99301.78;5049974;28;20490;-71
2021/07/03 06:17:19;;;;;;;6.07;5.30;;;;;;;28.16;38.75;99303.81;5050283;28;20044;-70
2021/07/03 06:19:45;;;;;;;7.07;5.25;;;;;;;29.49;36.21;99323.84;5049585;28;20041;-70
2021/07/03 06:22:12;;;;;;;8.23;5.22;;;;;;;30.59;34.21;99334.88;5049515;28;20455;-71
2021/07/03 06:24:42;;;;;;;5.35;4.65;;;;;;;30.63;33.91;99328.09;5016002;28;20498;-70
2021/07/03 06:27:08;;;;;;;4.75;4.25;;;;;;;29.90;35.12;99327.38;5014741;28;20036;-72
2021/07/03 06:29:34;;;;;;;10.98;5.15;;;;;;;29.80;35.02;99316.78;5050216;28;20044;-73
2021/07/03 06:32:04;;;;;;;9.38;5.47;;;;;;;29.82;35.59;99312.06;5030774;28;20136;-74
2021/07/03 06:34:30;;;;;;;12.02;6.40;;;;;;;30.17;34.85;99323.47;5048838;28;20045;-72
2021/07/03 06:36:56;;;;;;;10.88;4.55;;;;;;;28.46;38.11;99320.50;5049396;28;20128;-72
2021/07/03 06:39:22;;;;;;;6.88;3.50;;;;;;;27.76;39.23;99323.22;5049732;28;20045;-72
2021/07/03 06:41:48;;;;;;;5.45;4.32;;;;;;;26.92;40.88;99318.19;5032307;28;20506;-70
2021/07/03 06:44:14;;;;;;;10.82;4.50;;;;;;;26.37;42.53;99316.50;5050137;28;20045;-72
2021/07/03 06:46:39;;;;;;;14.85;5.85;;;;;;;25.79;44.88;99327.38;5049319;28;20497;-70
2021/07/03 06:49:05;;;;;;;15.00;5.53;;;;;;;25.20;46.76;99325.66;5015243;28;20055;-73
2021/07/03 06:51:31;;;;;;;10.05;3.65;;;;;;;24.59;45.83;99318.63;5048321;28;20044;-73
2021/07/03 06:54:00;;;;;;;5.20;3.50;;;;;;;24.22;47.90;99322.78;5048471;28;20125;-71
2021/07/03 06:56:27;;;;;;;8.35;4.93;;;;;;;27.32;41.04;99337.59;5049852;28;20387;-73
2021/07/03 06:58:53;;;;;;;8.00;4.50;;;;;;;28.89;37.38;99327.56;5049996;28;20131;-73
2021/07/03 07:01:18;;;;;;;5.57;4.07;;;;;;;29.68;35.05;99327.03;5015417;28;20136;-73
2021/07/03 07:03:44;;;;;;;6.43;4.25;;;;;;;31.30;31.98;99319.47;5031826;28;20490;-73
2021/07/03 07:06:10;;;;;;;10.93;3.78;;;;;;;30.69;33.25;99331.09;5048899;28;20044;-74
2021/07/03 07:08:36;;;;;;;3.83;3.10;;;;;;;30.12;34.51;99315.06;5052259;28;20053;-71
2021/07/03 07:11:03;;;;;;;7.57;3.70;;;;;;;30.60;33.75;99328.44;5052499;28;20059;-71
2021/07/03 07:13:28;;;;;;;8.02;3.60;;;;;;;28.26;38.31;99322.59;5051697;28;20072;-73
2021/07/03 07:15:54;;;;;;;9.80;4.10;;;;;;;27.12;40.51;99323.47;5052577;28;20083;-71
2021/07/03 07:18:20;;;;;;;7.80;4.03;;;;;;;26.48;42.58;99319.00;5051196;28;20040;-80
2021/07/03 07:20:46;;;;;;;8.88;5.35;;;;;;;26.27;42.99;99325.41;5052534;28;20586;-71
2021/07/03 07:23:12;;;;;;;7.60;4.70;;;;;;;27.14;41.23;99316.94;5017974;28;20049;-71
2021/07/03 07:25:38;;;;;;;7.82;3.72;;;;;;;27.23;40.45;99299.06;5052321;28;20057;-73
2021/07/03 07:28:04;;;;;;;10.27;4.90;;;;;;;28.14;38.97;99316.59;5051484;28;20556;-70
2021/07/03 07:30:29;;;;;;;10.75;4.60;;;;;;;29.79;35.70;99309.72;5051161;28;20076;-72
2021/07/03 07:32:55;;;;;;;5.95;4.05;;;;;;;30.90;32.36;99307.03;5051741;28;20118;-69
2021/07/03 07:35:21;;;;;;;8.35;3.92;;;;;;;32.78;29.40;99302.47;5050663;28;20045;-72
2021/07/03 07:37:48;;;;;;;5.85;3.30;;;;;;;32.98;29.23;99308.13;5053318;28;20103;-72
2021/07/03 07:40:15;;;;;;;5.60;3.42;;;;;;;32.95;28.88;99303.09;5018123;28;20041;-72
2021/07/03 07:42:41;;;;;;;8.63;3.53;;;;;;;30.33;33.51;99304.53;5035616;28;20419;-71
2021/07/03 07:45:09;;;;;;;10.85;3.40;;;;;;;28.90;36.36;99301.50;5036286;28;20048;-71
2021/07/03 07:47:35;;;;;;;9.07;4.32;;;;;;;29.21;36.12;99299.03;5036170;28;20044;-72
2021/07/03 07:50:00;;;;;;;4.70;2.90;;;;;;;31.78;31.52;99307.44;5052855;28;20045;-72
2021/07/03 07:52:27;;;;;;;3.83;2.47;;;;;;;33.31;28.76;99302.22;5053313;28;20044;-71
2021/07/03 07:54:52;;;;;;;7.82;3.00;;;;;;;34.08;27.37;99310.41;5052563;28;20452;-71
2021/07/03 07:57:21;;;;;;;8.48;3.33;;;;;;;33.07;28.21;99301.53;5053168;28;20052;-72
2021/07/03 07:59:48;;;;;;;4.35;2.15;;;;;;;31.64;31.14;99302.81;5035595;28;20088;-70
2021/07/03 08:02:14;;;;;;;8.57;2.50;;;;;;;29.96;33.33;99313.22;5018282;28;20087;-70
2021/07/03 08:04:40;;;;;;;5.22;2.58;;;;;;;28.36;36.28;99303.66;5050829;28;20493;-70
2021/07/03 08:07:06;;;;;;;5.95;2.60;;;;;;;27.48;37.97;99303.66;5052021;28;20127;-73
2021/07/03 08:09:32;;;;;;;3.47;2.78;;;;;;;28.03;36.76;99298.03;5049652;28;20152;-70
2021/07/03 08:11:58;;;;;;;5.38;3.30;;;;;;;28.99;34.98;99297.84;5049685;28;20071;-76
2021/07/03 08:14:24;;;;;;;4.22;2.40;;;;;;;27.75;37.87;99308.09;5051785;28;20045;-68
2021/07/03 08:16:50;;;;;;;5.55;3.10;;;;;;;26.27;42.20;99295.06;5049933;28;20048;-73
2021/07/03 08:19:16;;;;;;;6.95;3.33;;;;;;;25.93;43.12;99310.81;5051574;28;20037;-73
2021/07/03 08:21:43;;;;;;;7.22;3.40;;;;;;;25.46;43.91;99300.03;5050301;28;20072;-71
2021/07/03 08:24:09;;;;;;;6.65;3.22;;;;;;;25.34;44.61;99318.09;5049422;28;20065;-76
2021/07/03 08:26:35;;;;;;;5.45;4.47;;;;;;;26.81;41.07;99321.09;5050111;28;20132;-72
2021/07/03 08:29:01;;;;;;;8.25;3.92;;;;;;;28.20;38.04;99311.56;5051327;28;20538;-73
2021/07/03 08:31:28;;;;;;;4.55;3.83;;;;;;;29.78;34.81;99324.19;5049551;28;20041;-70
2021/07/03 08:33:55;;;;;;;10.05;4.38;;;;;;;30.96;31.94;99319.81;5033389;28;20086;-74
2021/07/03 08:36:21;;;;;;;9.10;4.97;;;;;;;31.19;31.86;99331.50;5051360;28;20200;-74
2021/07/03 08:38:47;;;;;;;5.55;3.03;;;;;;;30.53;32.91;99313.09;5017254;28;20052;-72
2021/07/03 08:41:13;;;;;;;8.20;2.58;;;;;;;30.06;33.37;99313.91;5052126;28;20351;-73
2021/07/03 08:43:45;;;;;;;4.97;3.10;;;;;;;30.62;32.65;99328.28;5000914;28;20492;-73
2021/07/03 08:46:11;;;;;;;5.18;3.40;;;;;;;31.07;30.80;99327.50;5017671;28;20087;-75
2021/07/03 08:48:37;;;;;;;5.65;3.88;;;;;;;31.39;30.63;99309.44;5051718;28;20064;-74
2021/07/03 08:51:03;;;;;;;3.97;3.25;;;;;;;32.20;28.67;99309.56;5018741;28;20049;-73
2021/07/03 08:53:29;;;;;;;4.05;3.15;;;;;;;32.27;28.87;99306.13;5052894;28;20045;-72
2021/07/03 08:55:55;;;;;;;5.38;2.55;;;;;;;30.98;31.98;99298.88;5052449;28;20041;-74
2021/07/03 08:58:20;;;;;;;8.80;3.30;;;;;;;30.78;31.72;99303.03;5052023;28;20032;-73
2021/07/03 09:00:47;;;;;;;3.28;2.35;;;;;;;29.59;33.89;99306.50;5050046;28;20072;-72
2021/07/03 09:03:21;;;;;;;5.30;2.20;;;;;;;28.26;37.09;99303.78;5050017;28;20045;-72
2021/07/03 09:05:55;;;;;;;10.32;2.60;;;;;;;28.76;36.66;99311.03;5031357;28;20368;-72
2021/07/03 09:08:25;;;;;;;4.63;2.15;;;;;;;29.26;35.26;99304.78;5032038;28;20465;-70
2021/07/03 09:11:08;;;;;;;4.25;2.65;;;;;;;27.85;37.22;99297.25;5032065;28;20158;-71
2021/07/03 09:13:36;;;;;;;7.15;2.72;;;;;;;26.84;39.97;99320.81;5016030;28;20044;-74
2021/07/03 09:16:02;;;;;;;6.18;2.85;;;;;;;27.14;40.39;99306.19;5050741;28;20536;-72
2021/07/03 09:18:30;;;;;;;3.95;2.53;;;;;;;27.79;39.13;99316.69;5016709;28;20044;-72
2021/07/03 09:21:02;;;;;;;3.92;2.58;;;;;;;27.33;39.46;99289.09;5048573;28;20402;-75
2021/07/03 09:23:36;;;;;;;3.10;2.55;;;;;;;26.57;40.95;99335.03;5016066;28;20059;-74
2021/07/03 09:26:11;;;;;;;8.65;2.50;;;;;;;26.31;41.17;99317.06;5048348;28;20142;-74
2021/07/03 09:28:41;;;;;;;2.80;2.50;;;;;;;25.64;42.62;99338.50;5049738;28;20112;-72
2021/07/03 09:31:10;;;;;;;9.02;2.90;;;;;;;26.07;41.87;99304.19;5048811;28;20533;-74
2021/07/03 09:33:40;;;;;;;4.22;2.58;;;;;;;26.11;40.28;99322.50;5049345;28;20052;-72
2021/07/03 09:36:07;;;;;;;6.63;2.45;;;;;;;25.47;42.32;99328.50;5048443;28;20059;-71
2021/07/03 09:38:48;;;;;;;4.55;2.55;;;;;;;25.15;43.32;99311.84;5031225;28;20148;-74
2021/07/03 09:41:16;;;;;;;5.07;3.38;;;;;;;25.01;43.85;99321.13;5048941;28;20056;-75
2021/07/03 09:43:48;;;;;;;6.53;3.00;;;;;;;24.61;45.34;99338.06;5050239;28;20068;-71
2021/07/03 09:46:34;;;;;;;5.57;2.70;;;;;;;24.50;45.62;99319.41;5051610;28;20079;-69
2021/07/03 09:49:05;;;;;;;2.78;2.47;;;;;;;24.52;45.10;99325.47;5051535;28;20055;-69
2021/07/03 09:51:42;;;;;;;4.93;2.60;;;;;;;24.38;45.12;99329.38;5050816;28;20040;-69
2021/07/03 09:54:09;;;;;;;3.58;2.90;;;;;;;24.39;44.28;99298.97;5051793;28;20041;-71
2021/07/03 09:56:36;;;;;;;9.90;2.92;;;;;;;24.80;45.27;99309.66;5050149;28;20045;-70
2021/07/03 09:59:02;;;;;;;6.65;3.17;;;;;;;24.71;45.18;99308.66;5048071;28;20509;-69
2021/07/03 10:01:28;;;;;;;7.43;4.38;;;;;;;24.87;45.21;99322.34;5047657;28;20555;-69
2021/07/03 10:03:55;;;;;;;6.68;3.55;;;;;;;24.96;44.97;99318.84;5050332;28;20045;-68
2021/07/03 10:06:33;;;;;;;8.27;4.43;;;;;;;24.74;45.68;99331.63;5050132;28;20045;-69
2021/07/03 10:09:03;;;;;;;6.60;3.20;;;;;;;24.25;46.73;99334.06;5049190;28;20379;-70
2021/07/03 10:11:31;;;;;;;5.05;2.80;;;;;;;24.50;46.66;99319.41;5049796;28;20041;-68
2021/07/03 10:14:02;;;;;;;5.90;2.88;;;;;;;24.52;46.44;99306.75;5047320;28;20066;-67
2021/07/03 10:16:29;;;;;;;7.15;2.95;;;;;;;24.75;45.46;99309.22;5048960;28;20071;-67
2021/07/03 10:19:16;;;;;;;4.78;2.50;;;;;;;24.79;45.57;99316.84;5047760;28;20045;-71
2021/07/03 10:21:43;;;;;;;4.32;2.92;;;;;;;25.19;44.31;99303.41;5046212;28;20041;-72
2021/07/03 10:24:23;;;;;;;4.90;2.75;;;;;;;24.95;45.19;99313.63;5047909;28;20084;-70
2021/07/03 10:26:51;;;;;;;9.35;2.80;;;;;;;25.05;44.91;99308.31;5048807;28;20041;-69
2021/07/03 10:29:21;;;;;;;4.20;2.80;;;;;;;25.68;44.23;99319.50;5049836;28;20052;-69
2021/07/03 10:31:49;;;;;;;5.50;3.53;;;;;;;25.40;44.12;99308.63;5049193;28;20499;-69
2021/07/03 10:34:15;;;;;;;8.02;3.60;;;;;;;25.36;45.32;99325.97;5048237;28;20087;-68
2021/07/03 10:36:41;;;;;;;11.18;3.95;;;;;;;25.20;46.49;99328.34;5046707;28;20072;-67
2021/07/03 10:39:07;;;;;;;7.60;3.55;;;;;;;25.00;46.93;99312.25;5049308;28;20040;-70
2021/07/03 10:41:35;;;;;;;7.18;4.18;;;;;;;25.30;46.59;99311.31;5051555;28;20123;-69
2021/07/03 10:44:08;;;;;;;7.40;3.47;;;;;;;25.72;45.00;99331.59;5053497;28;20044;-70
2021/07/03 10:46:41;;;;;;;12.02;3.35;;;;;;;25.89;44.70;99312.09;5053444;28;20522;-69
2021/07/03 10:49:09;;;;;;;6.20;3.30;;;;;;;25.37;45.16;99327.66;5054821;28;20044;-71
2021/07/03 10:51:40;;;;;;;7.28;3.50;;;;;;;24.74;46.64;99328.94;5053886;28;20049;-71
2021/07/03 10:54:20;;;;;;;10.10;3.80;;;;;;;24.09;48.00;99328.38;5054546;28;20053;-70
2021/07/03 10:57:00;;;;;;;3.40;3.10;;;;;;;24.14;48.03;99328.81;5054829;28;20186;-70
2021/07/03 10:59:27;;;;;;;6.43;3.58;;;;;;;23.72;48.42;99326.16;5053991;28;20552;-71
2021/07/03 11:01:53;;;;;;;9.48;3.70;;;;;;;23.66;49.88;99320.50;5053977;28;20461;-69
2021/07/03 11:04:22;;;;;;;7.25;3.30;;;;;;;23.64;50.12;99317.94;5051519;28;20052;-68
2021/07/03 11:06:51;;;;;;;9.55;4.68;;;;;;;23.83;49.75;99319.06;5053458;28;20090;-69
2021/07/03 11:09:29;;;;;;;9.55;4.63;;;;;;;23.54;51.51;99321.50;5052948;28;20099;-71
2021/07/03 11:11:57;;;;;;;10.45;4.10;;;;;;;23.28;51.21;99315.69;5053430;28;20040;-71
2021/07/03 11:14:24;;;;;;;7.05;4.20;;;;;;;22.99;52.45;99318.91;5052414;28;20106;-68
2021/07/03 11:16:53;;;;;;;10.05;4.97;;;;;;;22.91;52.42;99318.69;5050806;28;20079;-70
2021/07/03 11:19:29;;;;;;;8.88;5.82;;;;;;;22.84;53.53;99312.16;5053572;28;20094;-70
2021/07/03 11:22:07;;;;;;;7.05;4.05;;;;;;;22.69;52.97;99332.03;5051109;28;20037;-69
2021/07/03 11:24:46;;;;;;;6.38;3.88;;;;;;;22.67;52.59;99302.00;5051578;28;20083;-70
2021/07/03 11:27:26;;;;;;;7.22;4.35;;;;;;;23.16;52.14;99314.03;5050905;28;20044;-69
2021/07/03 11:29:53;;;;;;;10.07;5.15;;;;;;;23.22;53.47;99325.03;5053136;28;20047;-69
2021/07/03 11:32:19;;;;;;;13.13;4.53;;;;;;;23.29;52.91;99325.38;5051157;28;20182;-69